Time;durP1;ratioP1;P1;durP2;ratioP2;P2;SDS_P1;SDS_P2;PMS_P1;PMS_P2;Temp;Humidity;BMP_temperature;BMP_pressure;BME280_temperature;BME280_humidity;BME280_pressure;Samples;Min_cycle;Max_cycle;Signal;HPM_P1;HPM_P2
2020/04/19 00:01:27;;;;;;;3.93;2.66;;;;;;;19.56;38.99;100445.53;;;;-51
2020/04/19 00:04:27;;;;;;;3.23;2.63;;;;;;;19.55;39.05;100444.64;;;;-51
2020/04/19 00:07:27;;;;;;;3.70;2.86;;;;;;;19.55;39.05;100444.31;;;;-51
2020/04/19 00:10:27;;;;;;;2.97;2.63;;;;;;;19.55;39.01;100441.56;;;;-51
2020/04/19 00:13:27;;;;;;;2.87;2.56;;;;;;;19.54;39.07;100441.19;;;;-52
2020/04/19 00:16:27;;;;;;;3.01;2.71;;;;;;;19.53;39.03;100438.47;;;;-51
2020/04/19 00:19:27;;;;;;;2.80;2.60;;;;;;;19.54;39.02;100442.42;;;;-51
2020/04/19 00:22:26;;;;;;;3.45;2.79;;;;;;;19.54;39.01;100438.17;;;;-51
2020/04/19 00:25:26;;;;;;;4.87;2.64;;;;;;;19.53;39.06;100431.32;;;;-51
2020/04/19 00:28:27;;;;;;;3.81;2.66;;;;;;;19.52;39.08;100427.59;;;;-51
2020/04/19 00:31:27;;;;;;;3.12;2.82;;;;;;;19.52;39.05;100426.26;;;;-51
2020/04/19 00:34:27;;;;;;;3.16;2.75;;;;;;;19.52;39.13;100430.44;;;;-51
2020/04/19 00:37:27;;;;;;;2.89;2.60;;;;;;;19.51;39.10;100432.68;;;;-51
2020/04/19 00:40:27;;;;;;;3.49;2.71;;;;;;;19.50;39.07;100435.98;;;;-51
2020/04/19 00:43:27;;;;;;;3.17;2.67;;;;;;;19.50;39.12;100433.31;;;;-51
2020/04/19 00:46:26;;;;;;;3.08;2.77;;;;;;;19.50;39.12;100429.79;;;;-51
2020/04/19 00:49:27;;;;;;;2.86;2.65;;;;;;;19.49;39.15;100430.92;;;;-51
2020/04/19 00:52:27;;;;;;;3.15;2.85;;;;;;;19.48;39.19;100426.19;;;;-51
2020/04/19 00:55:27;;;;;;;3.69;2.79;;;;;;;19.49;39.14;100429.41;;;;-51
2020/04/19 00:58:27;;;;;;;3.18;2.87;;;;;;;19.48;39.11;100425.02;;;;-52
2020/04/19 01:03:09;;;;;;;3.31;2.85;;;;;;;19.48;39.20;100416.03;;;;-52
2020/04/19 01:05:34;;;;;;;3.16;2.86;;;;;;;19.48;39.16;100407.82;;;;-51
2020/04/19 01:08:33;;;;;;;3.65;2.84;;;;;;;19.47;39.21;100410.73;;;;-51
2020/04/19 01:11:32;;;;;;;2.91;2.59;;;;;;;19.47;39.19;100415.59;;;;-51
2020/04/19 01:14:27;;;;;;;3.43;2.80;;;;;;;19.47;39.21;100428.75;;;;-51
2020/04/19 01:17:27;;;;;;;3.11;2.81;;;;;;;19.46;39.19;100431.45;;;;-51
2020/04/19 01:20:27;;;;;;;3.02;2.77;;;;;;;19.46;39.22;100434.97;;;;-51
2020/04/19 01:23:27;;;;;;;3.27;2.97;;;;;;;19.46;39.21;100430.01;;;;-51
2020/04/19 01:26:26;;;;;;;3.79;2.94;;;;;;;19.45;39.17;100425.31;;;;-51
2020/04/19 01:29:26;;;;;;;3.23;2.93;;;;;;;19.45;39.18;100427.23;;;;-51
2020/04/19 01:32:27;;;;;;;3.11;2.81;;;;;;;19.45;39.22;100423.81;;;;-51
2020/04/19 01:35:27;;;;;;;3.47;2.93;;;;;;;19.44;39.19;100427.28;;;;-51
2020/04/19 01:38:27;;;;;;;2.99;2.71;;;;;;;19.44;39.28;100430.80;;;;-52
2020/04/19 01:41:27;;;;;;;3.08;2.76;;;;;;;19.44;39.25;100436.12;;;;-51
2020/04/19 01:44:27;;;;;;;2.89;2.69;;;;;;;19.43;39.27;100432.20;;;;-51
2020/04/19 01:48:08;;;;;;;3.20;2.90;;;;;;;19.42;39.27;100433.83;;;;-51
2020/04/19 01:50:41;;;;;;;3.15;2.88;;;;;;;19.42;39.26;100430.64;;;;-51
2020/04/19 01:53:27;;;;;;;2.97;2.72;;;;;;;19.42;39.18;100433.72;;;;-51
2020/04/19 01:56:27;;;;;;;3.62;2.90;;;;;;;19.42;39.25;100437.97;;;;-51
2020/04/19 01:59:27;;;;;;;3.08;2.79;;;;;;;19.41;39.25;100449.59;;;;-51
2020/04/19 02:02:27;;;;;;;3.23;2.87;;;;;;;19.42;39.23;100450.77;;;;-51
2020/04/19 02:05:27;;;;;;;3.09;2.79;;;;;;;19.40;39.22;100444.96;;;;-51
2020/04/19 02:08:27;;;;;;;3.47;2.78;;;;;;;19.40;39.26;100441.27;;;;-51
2020/04/19 02:11:26;;;;;;;2.87;2.65;;;;;;;19.41;39.21;100441.34;;;;-51
2020/04/19 02:14:26;;;;;;;3.23;2.93;;;;;;;19.40;39.25;100447.33;;;;-51
2020/04/19 02:17:27;;;;;;;3.09;2.73;;;;;;;19.40;39.26;100453.36;;;;-51
2020/04/19 02:20:27;;;;;;;3.51;2.86;;;;;;;19.39;39.25;100451.78;;;;-51
2020/04/19 02:23:27;;;;;;;3.08;2.79;;;;;;;19.39;39.20;100442.40;;;;-51
2020/04/19 02:26:27;;;;;;;3.11;2.87;;;;;;;19.38;39.24;100440.34;;;;-51
2020/04/19 02:29:27;;;;;;;3.28;2.98;;;;;;;19.39;39.21;100438.41;;;;-51
2020/04/19 02:32:27;;;;;;;3.91;2.99;;;;;;;19.38;39.28;100435.39;;;;-52
2020/04/19 02:35:26;;;;;;;3.67;2.89;;;;;;;19.37;39.27;100437.13;;;;-51
2020/04/19 02:38:27;;;;;;;3.11;2.84;;;;;;;19.38;39.25;100445.00;;;;-52
2020/04/19 02:41:27;;;;;;;3.85;2.81;;;;;;;19.36;39.19;100447.29;;;;-51
2020/04/19 02:44:27;;;;;;;3.55;2.88;;;;;;;19.37;39.23;100453.77;;;;-51
2020/04/19 02:47:27;;;;;;;3.47;2.77;;;;;;;19.36;39.24;100451.77;;;;-51
2020/04/19 02:50:27;;;;;;;3.15;2.86;;;;;;;19.36;39.22;100459.31;;;;-51
2020/04/19 02:53:26;;;;;;;3.04;2.74;;;;;;;19.36;39.23;100466.84;;;;-51
2020/04/19 02:56:27;;;;;;;3.88;2.89;;;;;;;19.35;39.23;100462.61;;;;-51
2020/04/19 02:59:26;;;;;;;3.07;2.77;;;;;;;19.34;39.26;100459.55;;;;-51
2020/04/19 03:02:27;;;;;;;3.57;3.00;;;;;;;19.34;39.25;100456.58;;;;-51
2020/04/19 03:05:27;;;;;;;3.16;2.86;;;;;;;19.34;39.23;100462.00;;;;-51
2020/04/19 03:08:27;;;;;;;3.15;2.87;;;;;;;19.34;39.19;100470.55;;;;-51
2020/04/19 03:11:27;;;;;;;3.22;2.80;;;;;;;19.33;39.19;100462.12;;;;-51
2020/04/19 03:14:27;;;;;;;3.15;2.88;;;;;;;19.33;39.22;100466.14;;;;-51
2020/04/19 03:17:26;;;;;;;3.20;2.91;;;;;;;19.33;39.16;100473.51;;;;-51
2020/04/19 03:20:26;;;;;;;3.46;3.16;;;;;;;19.32;39.25;100482.34;;;;-51
2020/04/19 03:23:26;;;;;;;3.28;2.98;;;;;;;19.32;39.32;100481.16;;;;-51
2020/04/19 03:26:27;;;;;;;3.09;2.80;;;;;;;19.31;39.27;100479.72;;;;-51
2020/04/19 03:29:27;;;;;;;3.21;2.91;;;;;;;19.31;39.21;100467.00;;;;-51
2020/04/19 03:32:27;;;;;;;3.11;2.90;;;;;;;19.31;39.18;100458.58;;;;-51
2020/04/19 03:35:26;;;;;;;3.16;2.86;;;;;;;19.30;39.27;100452.45;;;;-51
2020/04/19 03:38:27;;;;;;;3.22;2.91;;;;;;;19.29;39.25;100456.52;;;;-51
2020/04/19 03:41:27;;;;;;;3.19;2.90;;;;;;;19.30;39.24;100462.83;;;;-51
2020/04/19 03:44:27;;;;;;;3.78;3.05;;;;;;;19.30;39.23;100457.14;;;;-51
2020/04/19 03:47:27;;;;;;;3.39;3.09;;;;;;;19.29;39.31;100453.41;;;;-51
2020/04/19 03:50:27;;;;;;;3.49;3.08;;;;;;;19.30;39.25;100448.42;;;;-51
2020/04/19 03:53:27;;;;;;;3.37;3.07;;;;;;;19.29;39.29;100450.05;;;;-51
2020/04/19 03:56:27;;;;;;;3.33;3.03;;;;;;;19.28;39.29;100449.91;;;;-52
2020/04/19 03:59:26;;;;;;;3.25;2.95;;;;;;;19.28;39.24;100447.33;;;;-52
2020/04/19 04:02:26;;;;;;;3.21;2.91;;;;;;;19.28;39.21;100446.89;;;;-52
2020/04/19 04:05:26;;;;;;;3.36;3.07;;;;;;;19.27;39.24;100451.08;;;;-52
2020/04/19 04:08:27;;;;;;;3.33;3.03;;;;;;;19.27;39.26;100451.30;;;;-51
2020/04/19 04:11:27;;;;;;;3.39;3.09;;;;;;;19.27;39.26;100451.91;;;;-51
2020/04/19 04:14:27;;;;;;;3.40;3.10;;;;;;;19.27;39.28;100440.25;;;;-51
2020/04/19 04:17:27;;;;;;;3.33;3.03;;;;;;;19.26;39.17;100439.64;;;;-51
2020/04/19 04:20:27;;;;;;;3.30;3.00;;;;;;;19.26;39.25;100439.64;;;;-52
2020/04/19 04:23:27;;;;;;;3.05;2.82;;;;;;;19.26;39.18;100440.81;;;;-51
2020/04/19 04:26:27;;;;;;;3.11;2.85;;;;;;;19.26;39.23;100436.30;;;;-51
2020/04/19 04:29:27;;;;;;;3.29;2.97;;;;;;;19.26;39.27;100439.04;;;;-51
2020/04/19 04:32:28;;;;;;;3.85;3.12;;;;;;;19.26;39.30;100437.03;;;;-52
2020/04/19 04:35:32;;;;;;;3.66;3.36;;;;;;;19.26;39.23;100435.79;;;;-51
2020/04/19 04:42:18;;;;;;;2.95;2.75;;;;;;;19.25;39.16;100437.16;;;;-51
2020/04/19 04:45:26;;;;;;;3.13;2.83;;;;;;;19.25;39.20;100431.23;;;;-51
2020/04/19 04:48:26;;;;;;;3.23;2.95;;;;;;;19.25;39.19;100432.39;;;;-51
2020/04/19 04:51:27;;;;;;;3.30;3.00;;;;;;;19.25;39.16;100431.95;;;;-51
2020/04/19 04:54:27;;;;;;;3.29;2.99;;;;;;;19.25;39.22;100435.07;;;;-51
2020/04/19 04:57:27;;;;;;;3.09;2.89;;;;;;;19.25;39.21;100438.48;;;;-51
2020/04/19 05:00:27;;;;;;;3.28;2.98;;;;;;;19.24;39.16;100438.55;;;;-51
2020/04/19 05:03:26;;;;;;;3.27;2.97;;;;;;;19.24;39.18;100442.56;;;;-51
2020/04/19 05:06:26;;;;;;;2.88;2.68;;;;;;;19.24;39.16;100442.73;;;;-52
2020/04/19 05:09:26;;;;;;;3.34;3.04;;;;;;;19.24;39.13;100442.47;;;;-51
2020/04/19 05:12:27;;;;;;;3.34;3.04;;;;;;;19.25;39.16;100442.34;;;;-51
2020/04/19 05:15:27;;;;;;;3.15;2.87;;;;;;;19.24;39.14;100438.38;;;;-52
2020/04/19 05:18:27;;;;;;;3.14;2.91;;;;;;;19.23;39.16;100437.73;;;;-51
2020/04/19 05:21:27;;;;;;;3.31;3.01;;;;;;;19.24;39.16;100438.05;;;;-51
2020/04/19 05:24:27;;;;;;;3.86;3.33;;;;;;;19.22;39.22;100431.42;;;;-51
2020/04/19 05:27:26;;;;;;;3.37;3.07;;;;;;;19.24;39.18;100439.45;;;;-51
2020/04/19 05:30:26;;;;;;;3.37;3.07;;;;;;;19.23;39.17;100449.22;;;;-51
2020/04/19 05:33:26;;;;;;;3.55;3.22;;;;;;;19.24;39.13;100454.17;;;;-51
2020/04/19 05:36:27;;;;;;;3.36;2.86;;;;;;;19.23;39.15;100454.64;;;;-51
2020/04/19 05:39:27;;;;;;;3.37;3.07;;;;;;;19.23;39.13;100454.91;;;;-51
2020/04/19 05:42:26;;;;;;;3.99;3.10;;;;;;;19.23;39.13;100460.09;;;;-52
2020/04/19 05:45:26;;;;;;;3.36;3.06;;;;;;;19.23;39.11;100470.14;;;;-51
2020/04/19 05:48:26;;;;;;;3.32;2.98;;;;;;;19.23;39.10;100468.03;;;;-52
2020/04/19 05:51:26;;;;;;;3.53;3.20;;;;;;;19.24;39.13;100477.78;;;;-51
2020/04/19 05:54:27;;;;;;;3.37;2.89;;;;;;;19.23;39.12;100479.34;;;;-51
2020/04/19 05:57:27;;;;;;;3.35;3.05;;;;;;;19.23;39.18;100479.92;;;;-51
2020/04/19 06:01:39;;;;;;;3.43;3.10;;;;;;;19.23;39.17;100480.69;;;;-51
2020/04/19 06:04:48;;;;;;;3.26;2.99;;;;;;;19.23;39.16;100482.53;;;;-51
2020/04/19 06:07:44;;;;;;;3.27;2.97;;;;;;;19.23;39.22;100489.90;;;;-52
2020/04/19 06:10:41;;;;;;;4.73;3.10;;;;;;;19.22;39.16;100488.34;;;;-51
2020/04/19 06:13:44;;;;;;;3.37;3.07;;;;;;;19.22;39.20;100484.83;;;;-51
2020/04/19 06:16:32;;;;;;;3.19;2.80;;;;;;;19.22;39.15;100485.66;;;;-52
2020/04/19 06:19:36;;;;;;;3.39;3.09;;;;;;;19.21;39.17;100486.20;;;;-51
2020/04/19 06:22:35;;;;;;;3.20;2.90;;;;;;;19.21;39.20;100485.86;;;;-51
2020/04/19 06:25:40;;;;;;;3.31;3.03;;;;;;;19.22;39.08;100492.36;;;;-51
2020/04/19 06:28:35;;;;;;;3.42;3.12;;;;;;;19.23;39.17;100499.67;;;;-51
2020/04/19 06:31:35;;;;;;;3.15;2.85;;;;;;;19.23;39.12;100504.02;;;;-49
2020/04/19 06:34:33;;;;;;;3.33;3.03;;;;;;;19.22;39.21;100506.16;;;;-50
2020/04/19 06:37:36;;;;;;;3.42;3.12;;;;;;;19.23;39.16;100500.51;;;;-50
2020/04/19 06:40:36;;;;;;;3.67;2.95;;;;;;;19.23;39.22;100499.34;;;;-49
2020/04/19 06:43:40;;;;;;;3.45;3.15;;;;;;;19.22;39.24;100491.09;;;;-50
2020/04/19 06:46:42;;;;;;;7.43;3.13;;;;;;;19.22;39.33;100494.27;;;;-50
2020/04/19 06:54:37;;;;;;;3.31;3.01;;;;;;;19.22;39.20;100496.38;;;;-49
2020/04/19 06:57:41;;;;;;;3.74;3.22;;;;;;;19.22;39.17;100492.77;;;;-50
2020/04/19 07:00:33;;;;;;;3.61;3.06;;;;;;;19.22;39.23;100489.02;;;;-49
2020/04/19 07:03:45;;;;;;;3.55;3.16;;;;;;;19.22;39.17;100493.88;;;;-49
2020/04/19 07:06:35;;;;;;;3.33;3.03;;;;;;;19.22;39.28;100504.76;;;;-50
2020/04/19 07:10:11;;;;;;;3.59;3.24;;;;;;;19.23;39.29;100506.81;;;;-49
2020/04/19 07:12:27;;;;;;;3.63;3.30;;;;;;;19.23;39.29;100505.87;;;;-50
2020/04/19 07:15:27;;;;;;;3.79;3.39;;;;;;;19.22;39.32;100501.98;;;;-50
2020/04/19 07:18:27;;;;;;;3.47;3.17;;;;;;;19.23;39.22;100501.69;;;;-50
2020/04/19 07:21:27;;;;;;;3.43;3.13;;;;;;;19.22;39.33;100500.73;;;;-50
2020/04/19 07:24:26;;;;;;;3.33;2.95;;;;;;;19.23;39.28;100500.17;;;;-50
2020/04/19 07:27:26;;;;;;;3.82;3.43;;;;;;;19.22;39.35;100504.25;;;;-50
2020/04/19 07:30:27;;;;;;;3.20;2.90;;;;;;;19.22;39.30;100506.83;;;;-49
2020/04/19 07:33:26;;;;;;;3.45;3.13;;;;;;;19.22;39.28;100511.62;;;;-49
2020/04/19 07:36:26;;;;;;;3.63;3.27;;;;;;;19.22;39.26;100512.34;;;;-49
2020/04/19 07:39:27;;;;;;;3.45;3.15;;;;;;;19.23;39.24;100517.19;;;;-49
2020/04/19 07:42:26;;;;;;;3.57;3.23;;;;;;;19.22;39.31;100515.98;;;;-50
2020/04/19 07:45:26;;;;;;;3.21;2.88;;;;;;;19.23;39.26;100525.45;;;;-49
2020/04/19 07:48:39;;;;;;;3.51;3.21;;;;;;;19.22;39.37;100525.17;;;;-50
2020/04/19 07:52:17;;;;;;;3.39;3.09;;;;;;;19.22;39.30;100526.92;;;;-49
2020/04/19 07:55:37;;;;;;;3.65;3.26;;;;;;;19.24;39.74;100525.34;;;;-54
2020/04/19 07:58:37;;;;;;;5.33;3.16;;;;;;;19.24;39.68;100526.85;;;;-55
2020/04/19 08:01:28;;;;;;;4.27;3.20;;;;;;;19.23;39.72;100528.98;;;;-55
2020/04/19 08:04:27;;;;;;;3.44;3.14;;;;;;;19.22;39.70;100525.86;;;;-55
2020/04/19 08:07:27;;;;;;;3.97;3.08;;;;;;;19.22;39.70;100525.19;;;;-56
2020/04/19 08:10:27;;;;;;;4.30;3.37;;;;;;;19.22;39.74;100527.36;;;;-55
2020/04/19 08:13:26;;;;;;;5.15;3.23;;;;;;;19.22;39.73;100526.59;;;;-55
2020/04/19 08:16:27;;;;;;;3.67;3.34;;;;;;;19.22;39.70;100527.92;;;;-56
2020/04/19 08:19:27;;;;;;;3.39;3.09;;;;;;;19.22;39.69;100523.23;;;;-50
2020/04/19 08:22:26;;;;;;;3.93;3.27;;;;;;;19.24;39.88;100523.33;;;;-51
2020/04/19 08:25:26;;;;;;;3.61;3.13;;;;;;;19.25;40.17;100522.64;;;;-50
2020/04/19 08:28:27;;;;;;;3.86;3.23;;;;;;;19.27;40.41;100526.14;;;;-50
2020/04/19 08:31:26;;;;;;;4.94;3.34;;;;;;;19.28;40.49;100525.63;;;;-50
2020/04/19 08:34:27;;;;;;;3.73;3.29;;;;;;;19.30;40.67;100521.33;;;;-51
2020/04/19 08:37:26;;;;;;;6.83;3.37;;;;;;;19.32;40.74;100517.67;;;;-51
2020/04/19 08:40:27;;;;;;;3.91;2.94;;;;;;;19.33;40.72;100521.63;;;;-55
2020/04/19 08:43:27;;;;;;;3.61;3.15;;;;;;;19.35;40.87;100526.13;;;;-50
2020/04/19 08:46:26;;;;;;;3.95;3.25;;;;;;;19.36;40.98;100527.23;;;;-53
2020/04/19 08:49:27;;;;;;;4.84;3.29;;;;;;;19.38;41.01;100527.29;;;;-49
2020/04/19 08:52:27;;;;;;;4.51;3.07;;;;;;;19.39;41.03;100522.41;;;;-55
2020/04/19 08:55:26;;;;;;;3.50;3.11;;;;;;;19.41;41.02;100522.84;;;;-54
2020/04/19 08:58:26;;;;;;;4.13;3.21;;;;;;;19.44;40.88;100522.91;;;;-52
2020/04/19 09:01:26;;;;;;;3.91;3.26;;;;;;;19.44;40.64;100516.78;;;;-51
2020/04/19 09:04:26;;;;;;;4.19;3.34;;;;;;;19.44;40.71;100513.66;;;;-51
2020/04/19 09:07:27;;;;;;;3.67;3.25;;;;;;;19.45;40.76;100514.25;;;;-48
2020/04/19 09:10:27;;;;;;;3.47;3.17;;;;;;;19.46;40.83;100511.91;;;;-50
2020/04/19 09:13:26;;;;;;;4.20;3.49;;;;;;;19.46;40.98;100510.11;;;;-53
2020/04/19 09:16:27;;;;;;;4.25;3.41;;;;;;;19.47;41.06;100510.22;;;;-52
2020/04/19 09:19:27;;;;;;;4.15;3.41;;;;;;;19.47;41.13;100507.20;;;;-50
2020/04/19 09:22:27;;;;;;;4.17;3.57;;;;;;;19.49;41.13;100507.56;;;;-52
2020/04/19 09:25:27;;;;;;;3.92;3.41;;;;;;;19.50;41.09;100504.89;;;;-55
2020/04/19 09:28:26;;;;;;;3.97;3.51;;;;;;;19.51;41.09;100502.02;;;;-56
2020/04/19 09:31:26;;;;;;;5.01;3.51;;;;;;;19.52;41.11;100497.87;;;;-54
2020/04/19 09:34:27;;;;;;;4.36;3.69;;;;;;;19.53;41.04;100501.84;;;;-51
2020/04/19 09:40:29;;;;;;;4.17;3.49;;;;;;;19.55;41.05;100503.04;;;;-50
2020/04/19 09:43:27;;;;;;;4.43;3.53;;;;;;;19.55;41.07;100499.19;;;;-53
2020/04/19 09:46:26;;;;;;;4.03;3.48;;;;;;;19.57;40.99;100498.10;;;;-52
2020/04/19 09:49:26;;;;;;;3.79;3.47;;;;;;;19.57;40.96;100494.48;;;;-51
2020/04/19 09:52:26;;;;;;;4.44;3.45;;;;;;;19.57;40.99;100488.39;;;;-56
2020/04/19 09:55:26;;;;;;;3.65;3.30;;;;;;;19.58;41.06;100481.13;;;;-58
2020/04/19 09:58:27;;;;;;;3.88;3.53;;;;;;;19.59;41.13;100473.23;;;;-55
2020/04/19 10:01:26;;;;;;;3.69;3.30;;;;;;;19.60;41.05;100469.31;;;;-51
2020/04/19 10:04:27;;;;;;;3.71;3.41;;;;;;;19.62;40.96;100466.89;;;;-51
2020/04/19 10:07:27;;;;;;;3.61;3.29;;;;;;;19.61;40.95;100463.91;;;;-52
2020/04/19 10:10:27;;;;;;;3.52;3.22;;;;;;;19.62;40.60;100460.77;;;;-52
2020/04/19 10:13:26;;;;;;;3.85;3.31;;;;;;;19.60;40.88;100454.02;;;;-52
2020/04/19 10:16:26;;;;;;;5.71;3.45;;;;;;;19.62;40.75;100453.16;;;;-52
2020/04/19 10:19:27;;;;;;;5.30;3.36;;;;;;;19.60;40.64;100449.66;;;;-53
2020/04/19 10:22:27;;;;;;;3.84;3.44;;;;;;;19.61;40.57;100446.75;;;;-55
2020/04/19 10:25:27;;;;;;;4.79;3.15;;;;;;;19.60;40.56;100449.89;;;;-52
2020/04/19 10:28:26;;;;;;;3.67;3.28;;;;;;;19.59;40.45;100442.48;;;;-52
2020/04/19 10:31:27;;;;;;;3.79;3.39;;;;;;;19.60;40.35;100442.86;;;;-52
2020/04/19 10:34:26;;;;;;;4.81;3.23;;;;;;;19.60;40.34;100442.34;;;;-53
2020/04/19 10:37:27;;;;;;;3.48;3.18;;;;;;;19.58;40.20;100430.81;;;;-52
2020/04/19 10:40:26;;;;;;;4.07;3.31;;;;;;;19.58;40.16;100428.80;;;;-52
2020/04/19 10:43:27;;;;;;;4.38;3.41;;;;;;;19.58;40.09;100430.20;;;;-53
2020/04/19 10:46:26;;;;;;;3.67;3.31;;;;;;;19.58;40.09;100423.00;;;;-52
2020/04/19 10:49:27;;;;;;;3.63;3.31;;;;;;;19.58;40.06;100419.75;;;;-52
2020/04/19 10:52:26;;;;;;;3.50;3.20;;;;;;;19.57;40.02;100415.52;;;;-53
2020/04/19 10:55:26;;;;;;;3.50;3.20;;;;;;;19.57;39.95;100413.23;;;;-52
2020/04/19 10:58:26;;;;;;;3.69;3.29;;;;;;;19.57;39.95;100412.34;;;;-52
2020/04/19 11:01:26;;;;;;;3.74;3.44;;;;;;;19.56;39.96;100405.49;;;;-52
2020/04/19 11:04:27;;;;;;;3.53;3.23;;;;;;;19.56;39.85;100405.16;;;;-52
2020/04/19 11:07:26;;;;;;;3.43;3.13;;;;;;;19.56;39.86;100400.46;;;;-52
2020/04/19 11:10:26;;;;;;;3.41;3.11;;;;;;;19.56;39.89;100398.45;;;;-52
2020/04/19 11:13:26;;;;;;;3.66;3.28;;;;;;;19.54;39.84;100388.59;;;;-52
2020/04/19 11:16:26;;;;;;;3.91;3.19;;;;;;;19.53;39.79;100388.44;;;;-52
2020/04/19 11:19:27;;;;;;;3.38;3.08;;;;;;;19.54;39.78;100378.44;;;;-52
2020/04/19 11:22:26;;;;;;;3.66;3.36;;;;;;;19.54;39.74;100373.84;;;;-52
2020/04/19 11:25:27;;;;;;;3.45;3.15;;;;;;;19.54;39.74;100375.76;;;;-52
2020/04/19 11:28:26;;;;;;;3.30;3.00;;;;;;;19.53;39.66;100375.38;;;;-52
2020/04/19 11:31:26;;;;;;;3.49;3.19;;;;;;;19.53;39.66;100368.78;;;;-52
2020/04/19 11:34:26;;;;;;;3.56;3.21;;;;;;;19.53;39.69;100365.09;;;;-52
2020/04/19 11:37:26;;;;;;;3.45;3.15;;;;;;;19.52;39.62;100361.88;;;;-52
2020/04/19 11:40:26;;;;;;;3.06;2.84;;;;;;;19.52;39.63;100352.49;;;;-52
2020/04/19 11:43:26;;;;;;;3.27;2.97;;;;;;;19.52;39.60;100348.87;;;;-52
2020/04/19 11:46:27;;;;;;;3.27;2.95;;;;;;;19.52;39.58;100351.22;;;;-52
2020/04/19 11:49:26;;;;;;;3.22;2.92;;;;;;;19.52;39.54;100350.65;;;;-52
2020/04/19 11:52:26;;;;;;;4.68;3.07;;;;;;;19.51;39.51;100349.20;;;;-52
2020/04/19 11:55:26;;;;;;;3.15;2.94;;;;;;;19.51;39.51;100347.86;;;;-52
2020/04/19 11:58:26;;;;;;;3.43;3.13;;;;;;;19.52;39.54;100350.64;;;;-53
2020/04/19 12:01:27;;;;;;;3.55;3.25;;;;;;;19.51;39.55;100350.88;;;;-52
2020/04/19 12:04:27;;;;;;;3.30;3.00;;;;;;;19.53;39.68;100351.36;;;;-52
2020/04/19 12:07:26;;;;;;;3.85;3.05;;;;;;;19.54;39.88;100345.61;;;;-50
2020/04/19 12:10:27;;;;;;;3.13;2.89;;;;;;;19.54;39.96;100344.27;;;;-51
2020/04/19 12:13:26;;;;;;;3.45;3.15;;;;;;;19.56;40.11;100348.87;;;;-50
2020/04/19 12:16:26;;;;;;;4.37;3.07;;;;;;;19.56;40.15;100343.52;;;;-55
2020/04/19 12:19:26;;;;;;;5.05;3.22;;;;;;;19.57;40.26;100347.41;;;;-55
2020/04/19 12:22:26;;;;;;;3.27;2.97;;;;;;;19.58;40.26;100348.28;;;;-56
2020/04/19 12:25:26;;;;;;;3.37;3.07;;;;;;;19.58;40.27;100347.55;;;;-52
2020/04/19 12:28:27;;;;;;;3.39;3.09;;;;;;;19.59;40.33;100343.58;;;;-54
2020/04/19 12:31:26;;;;;;;3.44;3.14;;;;;;;19.60;40.38;100343.51;;;;-58
2020/04/19 12:34:26;;;;;;;4.56;3.09;;;;;;;19.61;40.35;100339.36;;;;-50
2020/04/19 12:37:26;;;;;;;3.44;3.14;;;;;;;19.62;40.50;100342.33;;;;-54
2020/04/19 12:40:27;;;;;;;3.33;3.03;;;;;;;19.64;40.13;100336.88;;;;-53
2020/04/19 12:43:26;;;;;;;3.33;2.98;;;;;;;19.63;40.32;100338.61;;;;-53
2020/04/19 12:46:26;;;;;;;3.59;3.29;;;;;;;19.62;40.34;100335.05;;;;-54
2020/04/19 12:49:27;;;;;;;3.31;3.05;;;;;;;19.62;40.23;100333.05;;;;-54
2020/04/19 12:52:27;;;;;;;3.66;3.23;;;;;;;19.62;40.21;100325.73;;;;-54
2020/04/19 12:55:26;;;;;;;3.48;3.18;;;;;;;19.62;40.11;100324.50;;;;-54
2020/04/19 12:58:27;;;;;;;3.45;3.15;;;;;;;19.61;40.12;100322.95;;;;-53
2020/04/19 13:01:26;;;;;;;3.43;3.13;;;;;;;19.60;40.08;100317.31;;;;-54
2020/04/19 13:04:26;;;;;;;3.72;3.07;;;;;;;19.60;40.01;100308.27;;;;-54
2020/04/19 13:07:27;;;;;;;3.31;3.01;;;;;;;19.60;40.03;100306.16;;;;-53
2020/04/19 13:10:27;;;;;;;4.05;3.17;;;;;;;19.60;40.04;100305.72;;;;-54
2020/04/19 13:13:27;;;;;;;3.21;2.91;;;;;;;19.60;40.03;100301.13;;;;-54
2020/04/19 13:16:26;;;;;;;3.59;3.05;;;;;;;19.58;39.96;100296.62;;;;-54
2020/04/19 13:19:26;;;;;;;3.45;3.06;;;;;;;19.60;39.96;100288.47;;;;-53
2020/04/19 13:22:27;;;;;;;3.43;3.12;;;;;;;19.59;39.95;100292.20;;;;-54
2020/04/19 13:25:26;;;;;;;3.30;3.00;;;;;;;19.58;39.97;100292.44;;;;-54
2020/04/19 13:28:26;;;;;;;3.70;3.32;;;;;;;19.59;40.01;100288.30;;;;-52
2020/04/19 13:31:26;;;;;;;5.08;3.19;;;;;;;19.62;40.13;100287.64;;;;-52
2020/04/19 13:34:26;;;;;;;4.51;3.29;;;;;;;19.64;40.41;100279.12;;;;-49
2020/04/19 13:37:26;;;;;;;4.87;3.13;;;;;;;19.66;40.64;100277.16;;;;-61
2020/04/19 13:40:26;;;;;;;4.61;3.37;;;;;;;19.68;40.71;100276.33;;;;-55
2020/04/19 13:43:26;;;;;;;7.07;3.26;;;;;;;19.70;40.88;100281.57;;;;-53
2020/04/19 13:46:26;;;;;;;4.49;3.33;;;;;;;19.71;40.91;100278.20;;;;-52
2020/04/19 13:49:26;;;;;;;4.67;3.35;;;;;;;19.72;40.83;100269.73;;;;-55
2020/04/19 13:52:26;;;;;;;8.26;3.39;;;;;;;19.74;40.98;100269.88;;;;-51
2020/04/19 13:55:26;;;;;;;5.00;3.24;;;;;;;19.75;41.05;100268.17;;;;-64
2020/04/19 13:58:26;;;;;;;6.64;3.03;;;;;;;19.74;40.94;100267.70;;;;-59
2020/04/19 14:01:27;;;;;;;8.01;3.44;;;;;;;19.75;40.78;100266.90;;;;-51
2020/04/19 14:04:27;;;;;;;4.56;3.43;;;;;;;19.78;40.78;100257.20;;;;-51
2020/04/19 14:07:27;;;;;;;6.15;3.33;;;;;;;19.78;40.83;100257.86;;;;-51
2020/04/19 14:10:26;;;;;;;4.83;3.27;;;;;;;19.77;40.83;100254.98;;;;-50
2020/04/19 14:13:26;;;;;;;8.32;3.47;;;;;;;19.77;40.92;100249.12;;;;-50
2020/04/19 14:16:27;;;;;;;3.58;3.23;;;;;;;19.78;40.94;100247.65;;;;-53
2020/04/19 14:19:26;;;;;;;5.99;3.22;;;;;;;19.79;40.54;100247.69;;;;-54
2020/04/19 14:22:27;;;;;;;8.19;3.24;;;;;;;19.78;40.58;100249.42;;;;-54
2020/04/19 14:25:26;;;;;;;4.65;3.15;;;;;;;19.77;40.56;100245.02;;;;-54
2020/04/19 14:28:26;;;;;;;5.63;3.44;;;;;;;19.76;40.52;100242.48;;;;-54
2020/04/19 14:31:27;;;;;;;5.91;3.17;;;;;;;19.75;40.44;100240.53;;;;-54
2020/04/19 14:34:26;;;;;;;4.39;3.22;;;;;;;19.74;40.37;100240.61;;;;-54
2020/04/19 14:37:27;;;;;;;3.47;3.11;;;;;;;19.75;40.34;100247.30;;;;-54
2020/04/19 14:40:26;;;;;;;5.29;3.09;;;;;;;19.74;40.26;100243.73;;;;-54
2020/04/19 14:43:26;;;;;;;5.67;3.21;;;;;;;19.74;40.23;100238.88;;;;-54
2020/04/19 14:46:26;;;;;;;4.78;3.21;;;;;;;19.72;40.28;100240.97;;;;-49
2020/04/19 14:49:27;;;;;;;4.45;3.11;;;;;;;19.74;40.39;100241.99;;;;-52
2020/04/19 14:52:26;;;;;;;3.37;3.03;;;;;;;19.75;40.42;100237.74;;;;-52
2020/04/19 14:55:27;;;;;;;5.19;3.09;;;;;;;19.76;40.45;100234.00;;;;-51
2020/04/19 14:58:26;;;;;;;5.03;3.07;;;;;;;19.76;40.50;100232.75;;;;-51
2020/04/19 15:01:27;;;;;;;3.61;3.05;;;;;;;19.77;40.62;100232.63;;;;-51
2020/04/19 15:04:26;;;;;;;3.59;3.05;;;;;;;19.78;40.42;100230.16;;;;-50
2020/04/19 15:07:26;;;;;;;5.01;3.00;;;;;;;19.79;40.36;100226.34;;;;-53
2020/04/19 15:10:26;;;;;;;4.11;3.07;;;;;;;19.80;40.47;100227.78;;;;-57
2020/04/19 15:13:26;;;;;;;3.43;3.02;;;;;;;19.80;40.43;100237.61;;;;-51
2020/04/19 15:16:26;;;;;;;3.73;2.76;;;;;;;19.82;40.36;100239.86;;;;-52
2020/04/19 15:19:26;;;;;;;4.89;3.19;;;;;;;19.82;40.47;100242.21;;;;-54
2020/04/19 15:22:26;;;;;;;4.27;3.01;;;;;;;19.82;40.46;100234.17;;;;-59
2020/04/19 15:25:26;;;;;;;3.56;3.19;;;;;;;19.83;40.49;100235.55;;;;-51
2020/04/19 15:28:26;;;;;;;4.28;3.01;;;;;;;19.83;40.37;100241.48;;;;-51
2020/04/19 15:31:26;;;;;;;3.24;2.87;;;;;;;19.84;40.50;100242.52;;;;-52
2020/04/19 15:34:27;;;;;;;3.41;3.02;;;;;;;19.85;40.41;100246.08;;;;-50
2020/04/19 15:37:26;;;;;;;3.34;2.94;;;;;;;19.85;40.50;100249.77;;;;-56
2020/04/19 15:40:26;;;;;;;5.29;2.78;;;;;;;19.85;40.47;100250.84;;;;-52
2020/04/19 15:43:26;;;;;;;3.17;2.87;;;;;;;19.86;40.47;100254.91;;;;-57
2020/04/19 15:46:26;;;;;;;3.67;2.96;;;;;;;19.86;40.42;100250.98;;;;-50
2020/04/19 15:49:27;;;;;;;4.86;3.03;;;;;;;19.86;40.35;100250.75;;;;-53
2020/04/19 15:52:26;;;;;;;2.83;2.63;;;;;;;19.87;40.37;100253.87;;;;-53
2020/04/19 15:55:26;;;;;;;3.53;2.91;;;;;;;19.87;40.25;100252.53;;;;-54
2020/04/19 15:58:26;;;;;;;3.00;2.70;;;;;;;19.88;40.38;100256.09;;;;-54
2020/04/19 16:01:26;;;;;;;2.85;2.65;;;;;;;19.88;40.15;100252.80;;;;-53
2020/04/19 16:04:26;;;;;;;3.36;2.64;;;;;;;19.87;40.19;100259.06;;;;-53
2020/04/19 16:07:26;;;;;;;2.98;2.68;;;;;;;19.85;40.28;100261.60;;;;-53
2020/04/19 16:10:26;;;;;;;4.75;2.84;;;;;;;19.85;40.17;100257.81;;;;-53
2020/04/19 16:13:26;;;;;;;3.13;2.73;;;;;;;19.84;40.20;100261.06;;;;-53
2020/04/19 16:16:26;;;;;;;4.09;2.69;;;;;;;19.84;40.17;100265.25;;;;-53
2020/04/19 16:19:27;;;;;;;3.98;2.83;;;;;;;19.83;40.09;100261.86;;;;-53
2020/04/19 16:22:27;;;;;;;2.92;2.67;;;;;;;19.82;40.09;100270.27;;;;-53
2020/04/19 16:25:26;;;;;;;2.82;2.61;;;;;;;19.82;40.04;100269.26;;;;-53
2020/04/19 16:28:26;;;;;;;3.22;2.74;;;;;;;19.82;40.04;100268.35;;;;-53
2020/04/19 16:31:27;;;;;;;3.07;2.69;;;;;;;19.80;39.99;100270.63;;;;-53
2020/04/19 16:34:27;;;;;;;2.78;2.57;;;;;;;19.80;39.93;100271.13;;;;-53
2020/04/19 16:37:26;;;;;;;2.91;2.58;;;;;;;19.80;39.91;100273.30;;;;-56
2020/04/19 16:40:27;;;;;;;3.27;2.67;;;;;;;19.80;39.93;100272.86;;;;-51
2020/04/19 16:43:26;;;;;;;7.37;2.91;;;;;;;19.82;40.30;100281.09;;;;-57
2020/04/19 16:46:26;;;;;;;4.15;2.83;;;;;;;19.83;40.36;100279.69;;;;-52
2020/04/19 16:49:27;;;;;;;4.58;2.65;;;;;;;19.86;40.14;100288.25;;;;-57
2020/04/19 16:52:26;;;;;;;3.24;2.71;;;;;;;19.87;40.33;100281.86;;;;-53
2020/04/19 16:55:26;;;;;;;2.79;2.53;;;;;;;19.87;40.38;100284.77;;;;-58
2020/04/19 16:58:26;;;;;;;4.33;2.97;;;;;;;19.87;40.42;100280.02;;;;-59